createdAt,value
2017-05-30T00:00:44.117Z,21.46
2017-05-30T00:01:44.117Z,21.46
2017-05-30T00:02:44.120Z,21.49
2017-05-30T00:03:44.123Z,21.44
2017-05-30T00:04:44.112Z,21.52
2017-05-30T00:05:44.114Z,21.49
2017-05-30T00:06:44.112Z,21.58
2017-05-30T00:07:44.116Z,21.5
2017-05-30T00:08:44.110Z,21.52
2017-05-30T00:09:44.110Z,21.56
2017-05-30T00:10:44.109Z,21.5
2017-05-30T00:11:44.108Z,21.47
2017-05-30T00:12:44.111Z,21.52
2017-05-30T00:13:44.114Z,21.54
2017-05-30T00:14:44.107Z,21.58
2017-05-30T00:15:44.106Z,21.58
2017-05-30T00:16:44.108Z,21.61
2017-05-30T00:17:44.110Z,21.47
2017-05-30T00:18:44.113Z,21.58
2017-05-30T00:19:43.824Z,21.49
2017-05-30T00:20:44.106Z,21.43
2017-05-30T00:21:44.103Z,21.42
2017-05-30T00:22:44.099Z,21.47
2017-05-30T00:23:44.102Z,21.49
2017-05-30T00:24:44.103Z,21.47
2017-05-30T00:25:44.101Z,21.46
2017-05-30T00:26:44.096Z,21.43
2017-05-30T00:27:44.098Z,21.42
2017-05-30T00:28:44.098Z,21.35
2017-05-30T00:29:44.099Z,21.42
2017-05-30T00:30:44.096Z,21.35
2017-05-30T00:31:44.093Z,21.37
2017-05-30T00:32:43.792Z,21.35
2017-05-30T00:33:44.099Z,21.37
2017-05-30T00:34:44.097Z,21.34
2017-05-30T00:35:44.097Z,21.4
2017-05-30T00:36:43.789Z,21.38
2017-05-30T00:37:44.093Z,21.37
2017-05-30T00:38:43.785Z,21.37
2017-05-30T00:39:43.785Z,21.32
2017-05-30T00:40:44.091Z,21.31
2017-05-30T00:41:44.087Z,21.34
2017-05-30T00:42:44.094Z,21.34
2017-05-30T00:43:44.147Z,21.34
2017-05-30T00:44:44.087Z,21.32
2017-05-30T00:45:44.085Z,21.34
2017-05-30T00:46:44.087Z,21.35
2017-05-30T00:47:44.083Z,21.29
2017-05-30T00:48:43.775Z,21.32
2017-05-30T00:49:43.776Z,21.28
2017-05-30T00:50:44.077Z,21.27
2017-05-30T00:51:44.077Z,21.17
2017-05-30T00:52:44.077Z,21.17
2017-05-30T00:53:44.075Z,21.16
2017-05-30T00:54:44.079Z,21.24
2017-05-30T00:55:44.075Z,21.21
2017-05-30T00:56:44.072Z,21.1
2017-05-30T00:57:44.070Z,21.14
2017-05-30T00:58:44.071Z,21.17
2017-05-30T00:59:44.070Z,21.14
2017-05-30T01:00:43.765Z,21.07
2017-05-30T01:01:44.073Z,21.12
2017-05-30T01:02:44.070Z,21.06
2017-05-30T01:03:44.069Z,21.06
2017-05-30T01:04:44.065Z,20.99
2017-05-30T01:05:44.068Z,21.06
2017-05-30T01:06:44.065Z,20.89
2017-05-30T01:07:44.066Z,20.85
2017-05-30T01:08:44.063Z,20.79
2017-05-30T01:09:44.061Z,20.85
2017-05-30T01:10:44.065Z,20.76
2017-05-30T01:11:44.063Z,20.7
2017-05-30T01:12:44.064Z,20.73
2017-05-30T01:13:44.064Z,20.73
2017-05-30T01:14:44.056Z,20.72
2017-05-30T01:15:44.058Z,20.62
2017-05-30T01:16:44.053Z,20.58
2017-05-30T01:17:44.052Z,20.64
2017-05-30T01:18:43.749Z,20.52
2017-05-30T01:19:44.049Z,20.5
2017-05-30T01:20:43.744Z,20.52
2017-05-30T01:21:44.046Z,20.51
2017-05-30T01:22:44.044Z,20.48
2017-05-30T01:23:43.743Z,20.35
2017-05-30T01:24:44.045Z,20.42
2017-05-30T01:25:44.043Z,20.36
2017-05-30T01:26:44.039Z,20.29
2017-05-30T01:27:44.046Z,20.29
2017-05-30T01:28:44.044Z,20.23
2017-05-30T01:29:43.732Z,20.24
2017-05-30T01:30:44.036Z,20.21
2017-05-30T01:31:44.032Z,20.26
2017-05-30T01:32:44.036Z,20.08
2017-05-30T01:33:44.033Z,20.13
2017-05-30T01:34:44.027Z,20.17
2017-05-30T01:35:44.277Z,20.08
2017-05-30T01:36:44.030Z,20.03
2017-05-30T01:37:44.029Z,20.05
2017-05-30T01:38:44.028Z,19.99
2017-05-30T01:39:43.721Z,20.1
2017-05-30T01:40:43.718Z,20.02
2017-05-30T01:41:44.020Z,19.92
2017-05-30T01:42:44.019Z,19.92
2017-05-30T01:43:44.019Z,19.92
2017-05-30T01:44:43.711Z,19.96
2017-05-30T01:45:44.013Z,19.95
2017-05-30T01:46:44.009Z,19.94
2017-05-30T01:47:44.012Z,19.91
2017-05-30T01:48:44.011Z,19.91
2017-05-30T01:49:44.006Z,19.96
2017-05-30T01:50:44.006Z,19.94
2017-05-30T01:51:44.004Z,19.81
2017-05-30T01:52:44.003Z,19.91
2017-05-30T01:53:43.717Z,19.86
2017-05-30T01:54:43.699Z,19.92
2017-05-30T01:55:43.998Z,19.86
2017-05-30T01:56:43.998Z,19.84
2017-05-30T01:57:43.998Z,19.87
2017-05-30T01:58:43.995Z,19.81
2017-05-30T01:59:43.991Z,19.86
2017-05-30T02:00:43.991Z,19.77
2017-05-30T02:01:43.986Z,19.77
2017-05-30T02:02:43.983Z,19.91
2017-05-30T02:03:43.985Z,19.77
2017-05-30T02:04:43.983Z,19.86
2017-05-30T02:05:43.980Z,19.84
2017-05-30T02:06:43.977Z,19.78
2017-05-30T02:07:43.977Z,19.88
2017-05-30T02:08:43.976Z,19.83
2017-05-30T02:09:43.975Z,19.69
2017-05-30T02:10:43.971Z,19.77
2017-05-30T02:11:43.971Z,19.71
2017-05-30T02:12:43.968Z,19.71
2017-05-30T02:13:43.971Z,19.73
2017-05-30T02:14:43.663Z,19.71
2017-05-30T02:15:43.963Z,19.71
2017-05-30T02:16:43.960Z,19.68
2017-05-30T02:17:43.965Z,19.74
2017-05-30T02:18:43.959Z,19.71
2017-05-30T02:19:43.955Z,19.63
2017-05-30T02:20:43.954Z,19.77
2017-05-30T02:21:43.950Z,19.62
2017-05-30T02:22:43.948Z,19.65
2017-05-30T02:23:43.947Z,19.62
2017-05-30T02:24:43.951Z,19.61
2017-05-30T02:25:43.944Z,19.56
2017-05-30T02:26:43.944Z,19.51
2017-05-30T02:27:43.971Z,19.48
2017-05-30T02:28:43.949Z,19.55
2017-05-30T02:29:43.939Z,19.48
2017-05-30T02:30:43.934Z,19.54
2017-05-30T02:31:43.934Z,19.41
2017-05-30T02:32:43.931Z,19.46
2017-05-30T02:33:43.928Z,19.41
2017-05-30T02:34:43.926Z,19.43
2017-05-30T02:35:43.623Z,19.39
2017-05-30T02:36:43.922Z,19.33
2017-05-30T02:37:43.926Z,19.43
2017-05-30T02:38:43.918Z,19.39
2017-05-30T02:39:43.917Z,19.39
2017-05-30T02:40:43.924Z,19.31
2017-05-30T02:41:43.914Z,19.32
2017-05-30T02:42:43.912Z,19.33
2017-05-30T02:43:43.911Z,19.33
2017-05-30T02:44:43.907Z,19.36
2017-05-30T02:45:45.321Z,19.26
2017-05-30T02:46:43.962Z,19.32
2017-05-30T02:47:43.904Z,19.36
2017-05-30T02:48:43.901Z,19.22
2017-05-30T02:49:43.899Z,19.26
2017-05-30T02:50:43.895Z,19.14
2017-05-30T02:51:43.893Z,19.22
2017-05-30T02:52:43.892Z,19.1
2017-05-30T02:53:43.890Z,19.16
2017-05-30T02:54:43.885Z,19.11
2017-05-30T02:55:43.884Z,19.13
2017-05-30T02:56:43.882Z,19.14
2017-05-30T02:57:43.885Z,19.13
2017-05-30T02:58:43.886Z,19.11
2017-05-30T02:59:43.878Z,19.13
2017-05-30T03:00:43.572Z,19.11
2017-05-30T03:01:43.873Z,19.13
2017-05-30T03:02:43.875Z,19.11
2017-05-30T03:03:43.869Z,19.18
2017-05-30T03:04:43.872Z,19.14
2017-05-30T03:05:43.864Z,19.16
2017-05-30T03:06:43.862Z,19.14
2017-05-30T03:07:43.860Z,19.14
2017-05-30T03:08:43.858Z,19.16
2017-05-30T03:09:43.554Z,19.08
2017-05-30T03:10:43.551Z,19.08
2017-05-30T03:11:43.853Z,19.07
2017-05-30T03:12:43.852Z,19.13
2017-05-30T03:13:43.851Z,19.07
2017-05-30T03:14:43.845Z,19.1
2017-05-30T03:15:43.846Z,19.19
2017-05-30T03:16:43.841Z,19.08
2017-05-30T03:17:43.843Z,19.18
2017-05-30T03:18:43.839Z,19.16
2017-05-30T03:19:43.833Z,19.14
2017-05-30T03:20:43.834Z,19.14
2017-05-30T03:21:43.830Z,19.13
2017-05-30T03:22:43.830Z,19.19
2017-05-30T03:23:43.834Z,19.16
2017-05-30T03:24:43.839Z,19.23
2017-05-30T03:25:43.834Z,19.33
2017-05-30T03:26:43.520Z,19.29
2017-05-30T03:27:43.822Z,19.32
2017-05-30T03:28:43.823Z,19.36
2017-05-30T03:29:43.817Z,19.39
2017-05-30T03:30:43.818Z,19.54
2017-05-30T03:31:43.811Z,19.51
2017-05-30T03:32:43.812Z,19.66
2017-05-30T03:33:43.809Z,19.66
2017-05-30T03:34:43.808Z,19.77
2017-05-30T03:35:43.807Z,19.8
2017-05-30T03:36:43.802Z,20.03
2017-05-30T03:37:43.806Z,20.17
2017-05-30T03:38:43.805Z,20.28
2017-05-30T03:39:43.193Z,20.35
2017-05-30T03:40:43.798Z,20.51
2017-05-30T03:41:43.793Z,20.66
2017-05-30T03:42:43.792Z,20.79
2017-05-30T03:43:43.791Z,21.04
2017-05-30T03:44:43.791Z,21.09
2017-05-30T03:45:43.789Z,21.09
2017-05-30T03:46:43.789Z,21.38
2017-05-30T03:47:43.788Z,21.53
2017-05-30T03:48:43.789Z,21.62
2017-05-30T03:49:43.785Z,21.84
2017-05-30T03:50:43.484Z,21.98
2017-05-30T03:51:43.788Z,22.03
2017-05-30T03:52:43.789Z,22.24
2017-05-30T03:53:43.788Z,22.37
2017-05-30T03:54:43.783Z,22.45
2017-05-30T03:55:43.783Z,22.46
2017-05-30T03:56:43.480Z,22.49
2017-05-30T03:57:43.787Z,22.49
2017-05-30T03:58:43.787Z,22.47
2017-05-30T03:59:43.788Z,22.62
2017-05-30T04:00:43.789Z,22.7
2017-05-30T04:01:43.788Z,22.72
2017-05-30T04:02:43.789Z,22.88
2017-05-30T04:03:43.790Z,22.92
2017-05-30T04:04:43.789Z,23.02
2017-05-30T04:05:43.791Z,23.31
2017-05-30T04:06:43.791Z,23.55
2017-05-30T04:07:43.801Z,23.83
2017-05-30T04:08:43.492Z,23.94
2017-05-30T04:09:43.492Z,24.12
2017-05-30T04:10:43.797Z,24.27
2017-05-30T04:11:43.800Z,24.52
2017-05-30T04:12:43.807Z,24.69
2017-05-30T04:13:43.806Z,24.8
2017-05-30T04:14:43.809Z,24.99
2017-05-30T04:15:43.812Z,25.15
2017-05-30T04:16:43.813Z,25.38
2017-05-30T04:17:43.815Z,25.57
2017-05-30T04:18:43.821Z,25.72
2017-05-30T04:19:43.822Z,25.94
2017-05-30T04:20:43.827Z,26.06
2017-05-30T04:21:43.830Z,26.25
2017-05-30T04:22:43.834Z,26.44
2017-05-30T04:23:43.843Z,26.65
2017-05-30T04:24:43.845Z,26.85
2017-05-30T04:25:43.847Z,26.85
2017-05-30T04:26:43.853Z,26.97
2017-05-30T04:27:43.858Z,27.07
2017-05-30T04:28:43.864Z,27.06
2017-05-30T04:29:43.867Z,27.13
2017-05-30T04:30:44.122Z,27.21
2017-05-30T04:31:43.882Z,27.07
2017-05-30T04:32:43.883Z,26.99
2017-05-30T04:33:43.890Z,26.82
2017-05-30T04:34:43.896Z,26.63
2017-05-30T04:35:43.899Z,26.36
2017-05-30T04:36:43.903Z,26.18
2017-05-30T04:37:43.914Z,26.06
2017-05-30T04:38:43.915Z,26.1
2017-05-30T04:39:43.920Z,26.02
2017-05-30T04:40:43.924Z,25.99
2017-05-30T04:41:43.929Z,25.95
2017-05-30T04:42:43.632Z,25.91
2017-05-30T04:43:43.938Z,25.99
2017-05-30T04:44:44.008Z,26.01
2017-05-30T04:45:43.950Z,26.21
2017-05-30T04:46:43.953Z,26.35
2017-05-30T04:47:43.959Z,26.57
2017-05-30T04:48:43.965Z,26.76
2017-05-30T04:49:43.967Z,26.87
2017-05-30T04:50:43.970Z,27.04
2017-05-30T04:51:43.977Z,27.32
2017-05-30T04:52:43.984Z,27.44
2017-05-30T04:53:43.989Z,27.69
2017-05-30T04:54:44.001Z,27.78
2017-05-30T04:55:43.696Z,28.03
2017-05-30T04:56:44.003Z,28.04
2017-05-30T04:57:44.014Z,28.15
2017-05-30T04:58:44.027Z,28.31
2017-05-30T04:59:44.025Z,28.37
2017-05-30T05:00:44.029Z,28.48
2017-05-30T05:01:43.731Z,28.59
2017-05-30T05:02:44.048Z,28.86
2017-05-30T05:03:44.053Z,28.85
2017-05-30T05:04:44.059Z,29.15
2017-05-30T05:05:44.069Z,29.36
2017-05-30T05:06:44.087Z,29.6
2017-05-30T05:07:44.081Z,29.71
2017-05-30T05:08:44.091Z,29.83
2017-05-30T05:09:44.107Z,29.95
2017-05-30T05:10:44.106Z,30.07
2017-05-30T05:11:44.114Z,30.13
2017-05-30T05:12:44.125Z,30.31
2017-05-30T05:13:44.134Z,30.38
2017-05-30T05:14:44.142Z,30.6
2017-05-30T05:15:44.150Z,30.92
2017-05-30T05:16:44.156Z,31.12
2017-05-30T05:17:44.167Z,31.09
2017-05-30T05:18:44.175Z,31.19
2017-05-30T05:19:44.182Z,31.31
2017-05-30T05:20:43.889Z,31.47
2017-05-30T05:21:44.204Z,31.56
2017-05-30T05:22:44.213Z,31.76
2017-05-30T05:23:44.224Z,31.89
2017-05-30T05:24:44.248Z,31.96
2017-05-30T05:25:43.939Z,32.23
2017-05-30T05:26:44.253Z,32.44
2017-05-30T05:27:44.264Z,32.55
2017-05-30T05:28:43.970Z,32.74
2017-05-30T05:29:44.282Z,32.78
2017-05-30T05:30:44.292Z,32.77
2017-05-30T05:31:44.301Z,32.96
2017-05-30T05:32:44.316Z,32.92
2017-05-30T05:33:44.327Z,32.93
2017-05-30T05:34:44.038Z,33.01
2017-05-30T05:35:43.738Z,33
2017-05-30T05:36:44.357Z,32.94
2017-05-30T05:37:44.071Z,32.96
2017-05-30T05:38:44.381Z,33
2017-05-30T05:39:44.390Z,33.12
2017-05-30T05:40:44.403Z,33.16
2017-05-30T05:41:44.419Z,33.34
2017-05-30T05:42:44.428Z,33.49
2017-05-30T05:43:44.437Z,33.6
2017-05-30T05:44:44.496Z,33.81
2017-05-30T05:45:44.468Z,33.87
2017-05-30T05:46:43.865Z,34.03
2017-05-30T05:47:44.484Z,34
2017-05-30T05:48:44.491Z,34.16
2017-05-30T05:49:44.506Z,34.34
2017-05-30T05:50:44.517Z,34.52
2017-05-30T05:51:44.529Z,34.61
2017-05-30T05:52:44.241Z,34.7
2017-05-30T05:53:44.551Z,34.81
2017-05-30T05:54:44.566Z,34.92
2017-05-30T05:55:44.576Z,35.14
2017-05-30T05:56:44.588Z,35.21
2017-05-30T05:57:44.600Z,35.21
2017-05-30T05:58:44.614Z,35.14
2017-05-30T05:59:44.324Z,35.16
2017-05-30T06:00:44.642Z,35.1
2017-05-30T06:01:44.652Z,35.25
2017-05-30T06:02:44.363Z,35.47
2017-05-30T06:03:44.677Z,35.56
2017-05-30T06:04:44.692Z,35.71
2017-05-30T06:05:44.705Z,35.87
2017-05-30T06:06:44.718Z,35.93
2017-05-30T06:07:44.736Z,36.09
2017-05-30T06:08:44.744Z,36.13
2017-05-30T06:09:44.453Z,36.25
2017-05-30T06:10:44.772Z,36.28
2017-05-30T06:11:44.781Z,36.2
2017-05-30T06:12:44.801Z,36.17
2017-05-30T06:13:44.514Z,35.99
2017-05-30T06:14:44.830Z,35.9
2017-05-30T06:15:44.842Z,35.78
2017-05-30T06:16:44.854Z,35.85
2017-05-30T06:17:44.870Z,35.99
2017-05-30T06:18:44.883Z,36.08
2017-05-30T06:19:44.895Z,36.25
2017-05-30T06:20:44.911Z,36.32
2017-05-30T06:21:44.927Z,36.5
2017-05-30T06:22:44.942Z,36.53
2017-05-30T06:23:44.959Z,36.65
2017-05-30T06:24:44.692Z,36.75
2017-05-30T06:25:44.988Z,36.85
2017-05-30T06:26:44.997Z,36.88
2017-05-30T06:27:45.017Z,36.9
2017-05-30T06:28:45.031Z,37.02
2017-05-30T06:29:45.050Z,37.15
2017-05-30T06:30:45.061Z,37.07
2017-05-30T06:31:45.072Z,37.13
2017-05-30T06:32:45.089Z,37.17
2017-05-30T06:33:45.108Z,37.17
2017-05-30T06:34:45.118Z,37.12
2017-05-30T06:35:45.139Z,37.17
2017-05-30T06:36:45.154Z,37.12
2017-05-30T06:37:45.168Z,37.34
2017-05-30T06:38:45.182Z,37.51
2017-05-30T06:39:45.197Z,37.51
2017-05-30T06:40:45.217Z,37.63
2017-05-30T06:41:45.229Z,37.74
2017-05-30T06:42:44.941Z,37.85
2017-05-30T06:43:45.260Z,37.94
2017-05-30T06:44:45.277Z,37.91
2017-05-30T06:45:45.293Z,37.94
2017-05-30T06:46:45.307Z,37.98
2017-05-30T06:47:45.319Z,38.15
2017-05-30T06:48:45.335Z,38.12
2017-05-30T06:49:45.353Z,38.25
2017-05-30T06:50:45.368Z,38.32
2017-05-30T06:51:45.082Z,38.41
2017-05-30T06:52:45.403Z,38.41
2017-05-30T06:53:45.419Z,38.49
2017-05-30T06:54:45.438Z,38.54
2017-05-30T06:55:45.454Z,38.61
2017-05-30T06:56:45.467Z,38.79
2017-05-30T06:57:45.176Z,38.81
2017-05-30T06:58:45.496Z,39.03
2017-05-30T06:59:45.514Z,39.14
2017-05-30T07:00:45.528Z,39.32
2017-05-30T07:01:45.546Z,39.32
2017-05-30T07:02:45.258Z,39.45
2017-05-30T07:03:45.579Z,39.44
2017-05-30T07:04:45.597Z,39.5
2017-05-30T07:05:45.616Z,39.48
2017-05-30T07:06:45.631Z,39.45
2017-05-30T07:07:45.652Z,39.69
2017-05-30T07:08:45.665Z,39.66
2017-05-30T07:09:45.680Z,39.52
2017-05-30T07:10:45.700Z,39.55
2017-05-30T07:11:45.715Z,39.59
2017-05-30T07:12:45.730Z,39.54
2017-05-30T07:13:45.759Z,39.66
2017-05-30T07:14:45.773Z,39.66
2017-05-30T07:15:45.790Z,39.67
2017-05-30T07:16:45.804Z,39.6
2017-05-30T07:17:45.822Z,39.63
2017-05-30T07:18:45.835Z,39.51
2017-05-30T07:19:45.548Z,39.38
2017-05-30T07:20:45.870Z,39.38
2017-05-30T07:21:45.886Z,39.32
2017-05-30T07:22:45.904Z,39.17
2017-05-30T07:23:45.923Z,38.93
2017-05-30T07:24:45.631Z,38.91
2017-05-30T07:25:45.953Z,38.98
2017-05-30T07:26:45.967Z,39.14
2017-05-30T07:27:45.987Z,39.17
2017-05-30T07:28:46.007Z,39.3
2017-05-30T07:29:46.020Z,39.28
2017-05-30T07:30:46.034Z,39.32
2017-05-30T07:31:46.051Z,39.22
2017-05-30T07:32:46.073Z,39.23
2017-05-30T07:33:46.086Z,39.26
2017-05-30T07:34:46.103Z,39.26
2017-05-30T07:35:46.121Z,39.3
2017-05-30T07:36:46.136Z,39.36
2017-05-30T07:37:46.153Z,39.38
2017-05-30T07:38:46.213Z,39.4
2017-05-30T07:39:46.183Z,39.43
2017-05-30T07:40:46.200Z,39.26
2017-05-30T07:41:45.913Z,39.25
2017-05-30T07:42:46.235Z,39.14
2017-05-30T07:43:46.252Z,39.29
2017-05-30T07:44:46.270Z,39.36
2017-05-30T07:45:46.288Z,39.41
2017-05-30T07:46:46.301Z,39.55
2017-05-30T07:47:46.323Z,39.67
2017-05-30T07:48:46.337Z,39.69
2017-05-30T07:49:46.354Z,39.79
2017-05-30T07:50:46.372Z,39.89
2017-05-30T07:51:46.087Z,39.88
2017-05-30T07:52:46.406Z,39.88
2017-05-30T07:53:46.431Z,39.69
2017-05-30T07:54:46.442Z,39.59
2017-05-30T07:55:46.458Z,39.25
2017-05-30T07:56:46.483Z,39.09
2017-05-30T07:57:46.492Z,38.93
2017-05-30T07:58:46.510Z,38.78
2017-05-30T07:59:46.528Z,38.74
2017-05-30T08:00:46.240Z,38.5
2017-05-30T08:01:46.254Z,38.31
2017-05-30T08:02:46.575Z,38.31
2017-05-30T08:03:46.595Z,38.38
2017-05-30T08:04:46.608Z,38.68
2017-05-30T08:05:46.331Z,38.81
2017-05-30T08:06:46.335Z,39.04
2017-05-30T08:07:46.355Z,39.14
2017-05-30T08:08:46.375Z,39.22
2017-05-30T08:09:46.387Z,39.33
2017-05-30T08:10:46.404Z,39.38
2017-05-30T08:11:46.420Z,39.48
2017-05-30T08:12:46.439Z,39.48
2017-05-30T08:13:46.759Z,39.67
2017-05-30T08:14:46.781Z,39.84
2017-05-30T08:15:46.800Z,40.04
2017-05-30T08:16:46.813Z,40.26
2017-05-30T08:17:46.830Z,40.41
2017-05-30T08:18:46.847Z,40.31
2017-05-30T08:19:46.565Z,40.15
2017-05-30T08:20:46.884Z,40.22
2017-05-30T08:21:46.902Z,40.13
2017-05-30T08:22:46.918Z,40.32
2017-05-30T08:23:46.640Z,40.39
2017-05-30T08:24:46.958Z,40.42
2017-05-30T08:25:46.974Z,40.58
2017-05-30T08:26:46.996Z,40.6
2017-05-30T08:27:46.719Z,40.57
2017-05-30T08:28:46.734Z,40.54
2017-05-30T08:29:47.051Z,40.51
2017-05-30T08:30:46.767Z,40.38
2017-05-30T08:31:46.797Z,40.25
2017-05-30T08:32:47.108Z,40.18
2017-05-30T08:33:47.126Z,39.98
2017-05-30T08:34:47.151Z,39.62
2017-05-30T08:35:46.863Z,39.41
2017-05-30T08:36:46.890Z,39.26
2017-05-30T08:37:46.900Z,39.14
2017-05-30T08:38:47.222Z,38.98
2017-05-30T08:39:46.936Z,38.81
2017-05-30T08:40:46.957Z,38.71
2017-05-30T08:41:46.974Z,38.69
2017-05-30T08:42:47.294Z,38.42
2017-05-30T08:43:47.012Z,38.34
2017-05-30T08:44:47.333Z,38.26
2017-05-30T08:45:47.058Z,38.25
2017-05-30T08:46:47.071Z,38.07
2017-05-30T08:47:47.385Z,38.03
2017-05-30T08:48:47.407Z,37.89
2017-05-30T08:49:47.462Z,37.81
2017-05-30T08:50:47.441Z,37.5
2017-05-30T08:51:47.159Z,37.28
2017-05-30T08:52:47.179Z,37.06
2017-05-30T08:53:47.496Z,36.76
2017-05-30T08:54:47.209Z,36.43
2017-05-30T08:55:47.554Z,36.12
2017-05-30T08:56:47.544Z,35.97
2017-05-30T08:57:47.561Z,35.81
2017-05-30T08:58:47.578Z,35.65
2017-05-30T08:59:47.595Z,35.59
2017-05-30T09:00:47.611Z,35.43
2017-05-30T09:01:47.619Z,35.44
2017-05-30T09:02:47.336Z,35.14
2017-05-30T09:03:47.651Z,35.11
2017-05-30T09:04:47.664Z,34.92
2017-05-30T09:05:47.678Z,34.88
2017-05-30T09:06:47.693Z,34.62
2017-05-30T09:07:47.708Z,34.59
2017-05-30T09:08:47.715Z,34.56
2017-05-30T09:09:47.728Z,34.53
2017-05-30T09:10:47.739Z,34.56
2017-05-30T09:11:47.760Z,34.54
2017-05-30T09:12:47.765Z,34.54
2017-05-30T09:13:47.473Z,34.56
2017-05-30T09:14:47.791Z,34.52
2017-05-30T09:15:47.804Z,34.4
2017-05-30T09:16:47.810Z,34.37
2017-05-30T09:17:47.824Z,34.34
2017-05-30T09:18:47.834Z,34.39
2017-05-30T09:19:47.845Z,34.42
2017-05-30T09:20:47.860Z,34.42
2017-05-30T09:21:47.864Z,34.56
2017-05-30T09:22:47.573Z,34.61
2017-05-30T09:23:47.894Z,34.66
2017-05-30T09:24:47.898Z,34.8
2017-05-30T09:25:47.912Z,34.87
2017-05-30T09:26:47.920Z,34.84
2017-05-30T09:27:47.938Z,34.81
2017-05-30T09:28:47.941Z,34.75
2017-05-30T09:29:47.951Z,34.75
2017-05-30T09:30:47.963Z,34.72
2017-05-30T09:31:47.975Z,34.62
2017-05-30T09:32:47.985Z,34.59
2017-05-30T09:33:47.999Z,34.5
2017-05-30T09:34:48.010Z,34.49
2017-05-30T09:35:47.718Z,34.47
2017-05-30T09:36:47.724Z,34.39
2017-05-30T09:37:48.038Z,34.46
2017-05-30T09:38:48.046Z,34.5
2017-05-30T09:39:48.060Z,34.56
2017-05-30T09:40:47.765Z,34.44
2017-05-30T09:41:48.083Z,34.42
2017-05-30T09:42:47.787Z,34.37
2017-05-30T09:43:48.107Z,34.39
2017-05-30T09:44:48.109Z,34.21
2017-05-30T09:45:48.119Z,34.15
2017-05-30T09:46:48.130Z,34.13
2017-05-30T09:47:48.141Z,34.15
2017-05-30T09:48:48.154Z,34.19
2017-05-30T09:49:47.858Z,34.24
2017-05-30T09:50:47.868Z,34.17
2017-05-30T09:51:48.182Z,34.22
2017-05-30T09:52:48.190Z,34.34
2017-05-30T09:53:48.203Z,34.34
2017-05-30T09:54:48.211Z,34.32
2017-05-30T09:55:48.222Z,34.28
2017-05-30T09:56:48.532Z,34.28
2017-05-30T09:57:48.242Z,34.32
2017-05-30T09:58:47.953Z,34.32
2017-05-30T09:59:47.959Z,34.31
2017-05-30T10:00:48.273Z,34.34
2017-05-30T10:01:48.282Z,34.32
2017-05-30T10:02:48.298Z,34.35
2017-05-30T10:03:48.000Z,34.34
2017-05-30T10:04:48.313Z,34.43
2017-05-30T10:05:48.322Z,34.37
2017-05-30T10:06:48.337Z,34.3
2017-05-30T10:07:48.341Z,34.39
2017-05-30T10:08:48.050Z,34.4
2017-05-30T10:09:48.365Z,34.37
2017-05-30T10:10:48.379Z,34.25
2017-05-30T10:11:48.383Z,34.24
2017-05-30T10:12:48.392Z,34.3
2017-05-30T10:13:48.403Z,34.32
2017-05-30T10:14:48.414Z,34.35
2017-05-30T10:15:48.420Z,34.46
2017-05-30T10:16:48.430Z,34.47
2017-05-30T10:17:48.444Z,34.47
2017-05-30T10:18:48.448Z,34.44
2017-05-30T10:19:48.459Z,34.42
2017-05-30T10:20:48.472Z,34.39
2017-05-30T10:21:48.480Z,34.28
2017-05-30T10:22:48.490Z,34.19
2017-05-30T10:23:48.498Z,34.09
2017-05-30T10:24:48.510Z,34.08
2017-05-30T10:25:48.520Z,34.1
2017-05-30T10:26:48.528Z,34.1
2017-05-30T10:27:48.536Z,34.09
2017-05-30T10:28:48.548Z,34.13
2017-05-30T10:29:48.557Z,34.08
2017-05-30T10:30:48.568Z,34.13
2017-05-30T10:31:48.575Z,34.13
2017-05-30T10:32:48.585Z,34.13
2017-05-30T10:33:48.596Z,34.08
2017-05-30T10:34:48.604Z,34.13
2017-05-30T10:35:48.617Z,34.17
2017-05-30T10:36:48.623Z,34.13
2017-05-30T10:37:48.630Z,34.06
2017-05-30T10:40:48.663Z,34.15
2017-05-30T10:41:48.672Z,34.27
2017-05-30T10:42:48.682Z,34.17
2017-05-30T10:43:48.694Z,34.28
2017-05-30T10:44:48.701Z,34.34
2017-05-30T10:45:48.711Z,34.49
2017-05-30T10:46:48.721Z,34.44
2017-05-30T10:47:48.728Z,34.49
2017-05-30T10:48:48.737Z,34.58
2017-05-30T10:49:48.747Z,34.5
2017-05-30T10:50:48.763Z,34.54
2017-05-30T10:51:48.767Z,34.61
2017-05-30T10:52:48.481Z,34.7
2017-05-30T10:53:48.792Z,34.78
2017-05-30T10:54:48.796Z,34.77
2017-05-30T10:55:48.810Z,34.8
2017-05-30T10:56:48.818Z,34.77
2017-05-30T10:57:48.833Z,34.91
2017-05-30T10:58:48.839Z,35.06
2017-05-30T10:59:48.844Z,35.18
2017-05-30T11:00:48.852Z,35.29
2017-05-30T11:01:48.563Z,35.43
2017-05-30T11:02:48.875Z,35.65
2017-05-30T11:03:48.884Z,35.68
2017-05-30T11:04:48.593Z,35.71
2017-05-30T11:05:48.906Z,35.9
2017-05-30T11:06:48.918Z,35.87
2017-05-30T11:07:48.925Z,35.78
2017-05-30T11:08:48.636Z,35.78
2017-05-30T11:09:48.946Z,35.75
2017-05-30T11:10:48.971Z,35.58
2017-05-30T11:11:48.970Z,35.58
2017-05-30T11:12:48.983Z,35.55
2017-05-30T11:13:48.992Z,35.66
2017-05-30T11:14:48.401Z,35.63
2017-05-30T11:15:49.010Z,35.48
2017-05-30T11:16:49.018Z,35.47
2017-05-30T11:17:49.030Z,35.44
2017-05-30T11:18:49.040Z,35.53
2017-05-30T11:19:49.055Z,35.48
2017-05-30T11:20:49.061Z,35.4
2017-05-30T11:21:49.071Z,35.43
2017-05-30T11:22:49.085Z,35.25
2017-05-30T11:23:48.791Z,34.97
2017-05-30T11:24:49.111Z,34.52
2017-05-30T11:25:49.115Z,34.12
2017-05-30T11:26:49.124Z,33.57
2017-05-30T11:27:49.133Z,33.04
2017-05-30T11:28:49.142Z,32.56
2017-05-30T11:29:49.154Z,32.03
2017-05-30T11:30:48.865Z,31.31
2017-05-30T11:31:48.873Z,30.76
2017-05-30T11:32:49.186Z,30.19
2017-05-30T11:33:49.193Z,29.78
2017-05-30T11:34:48.912Z,29.34
2017-05-30T11:35:49.211Z,28.92
2017-05-30T11:36:49.217Z,28.67
2017-05-30T11:37:48.927Z,28.29
2017-05-30T11:38:48.627Z,27.97
2017-05-30T11:39:48.943Z,27.65
2017-05-30T11:40:48.947Z,27.41
2017-05-30T11:41:49.256Z,27.24
2017-05-30T11:42:49.264Z,27.03
2017-05-30T11:43:49.270Z,26.82
2017-05-30T11:44:49.278Z,26.51
2017-05-30T11:45:49.285Z,26.48
2017-05-30T11:46:48.990Z,26.25
2017-05-30T11:47:48.997Z,25.91
2017-05-30T11:48:49.304Z,25.77
2017-05-30T11:49:49.313Z,25.65
2017-05-30T11:50:49.313Z,25.36
2017-05-30T11:51:49.320Z,25.18
2017-05-30T11:52:49.324Z,24.9
2017-05-30T11:53:49.328Z,24.77
2017-05-30T11:54:49.333Z,24.61
2017-05-30T11:55:49.340Z,24.52
2017-05-30T11:56:49.347Z,24.28
2017-05-30T11:57:49.347Z,24.15
2017-05-30T11:58:49.358Z,24.09
2017-05-30T11:59:49.355Z,23.93
2017-05-30T12:00:49.357Z,23.91
2017-05-30T12:01:49.363Z,23.8
2017-05-30T12:02:49.062Z,23.84
2017-05-30T12:03:49.373Z,23.78
2017-05-30T12:04:49.070Z,23.78
2017-05-30T12:05:49.377Z,23.69
2017-05-30T12:06:48.777Z,23.78
2017-05-30T12:07:49.081Z,23.85
2017-05-30T12:08:49.389Z,23.97
2017-05-30T12:09:49.145Z,24
2017-05-30T12:10:49.404Z,23.93
2017-05-30T12:11:49.393Z,24.09
2017-05-30T12:12:49.395Z,24.09
2017-05-30T12:13:49.396Z,24.25
2017-05-30T12:14:49.400Z,24.18
2017-05-30T12:15:49.405Z,24.3
2017-05-30T12:16:49.407Z,24.55
2017-05-30T12:17:49.410Z,24.71
2017-05-30T12:18:49.413Z,24.96
2017-05-30T12:19:49.420Z,25.21
2017-05-30T12:20:49.423Z,25.33
2017-05-30T12:21:49.427Z,25.55
2017-05-30T12:22:49.429Z,25.65
2017-05-30T12:23:49.431Z,25.91
2017-05-30T12:24:49.164Z,26.09
2017-05-30T12:25:49.441Z,26.21
2017-05-30T12:26:49.443Z,26.21
2017-05-30T12:27:49.454Z,26.21
2017-05-30T12:28:49.458Z,26.07
2017-05-30T12:29:48.854Z,25.99
2017-05-30T12:30:49.464Z,25.88
2017-05-30T12:31:49.473Z,25.92
2017-05-30T12:32:49.478Z,25.98
2017-05-30T12:33:49.180Z,26.05
2017-05-30T12:34:49.486Z,26.06
2017-05-30T12:35:49.491Z,26.13
2017-05-30T12:36:49.504Z,26.15
2017-05-30T12:37:49.504Z,26.17
2017-05-30T12:38:48.902Z,26.21
2017-05-30T12:39:49.861Z,26.32
2017-05-30T12:40:49.220Z,26.4
2017-05-30T12:41:49.530Z,26.6
2017-05-30T12:42:49.535Z,26.75
2017-05-30T12:43:49.538Z,26.99
2017-05-30T12:44:49.243Z,27.19
2017-05-30T12:45:49.250Z,27.25
2017-05-30T12:46:49.505Z,27.21
2017-05-30T12:47:49.564Z,27.44
2017-05-30T12:48:49.266Z,27.55
2017-05-30T12:49:49.577Z,27.57
2017-05-30T12:50:49.605Z,27.59
2017-05-30T12:51:49.588Z,27.62
2017-05-30T12:52:49.593Z,27.67
2017-05-30T12:53:49.601Z,27.67
2017-05-30T12:54:49.304Z,27.78
2017-05-30T12:55:49.614Z,27.75
2017-05-30T12:56:49.620Z,27.6